Grantsdale, Montana
Current Conditions -  °F | °C
As of 9:53 AM on Monday 22 Dec 2014 (Local Time) from KMSO Reporting Station
Few Clouds Few Clouds  
Wind Chill: 29°   Ceiling: Unl
Heat Index: 37°   Visibility: 10mi
Dew Point: 27°   Wind: 13mph
Humidity: 67%   Direction: 340°NNW
Pressure: 30.01"   Gusts: 20mph
Location:  46.2°N, 114.13°W
Report Text: KMSO 221653Z 34011G17KT 10SM FEW055 03/M03 A3001 RMK AO2 SLP181 T00281028
Loading
Personal Weather Stations






























Interactive Weather Map New forecast layout! Learn more

10-Day Weather Forecast

Advertisements
Track Severe Weather on mobile